»·PEaware :: DAL213 KASE-KSLC

DAL213 :: KASE-KSLC

FLIGHT INFORMATION

Flight Status: Arrived
Operator:
Delta Air Lines
More flights by this operator :: More flights under this callsign
Pilot: Nico L. (9332)
Aircraft: BOEING 737-800
(B738)
More flights by this aircraft type
Origin: KASE Aspen-Pitkin Co/Sardy
United States
Destination: KSLC Salt Lake City Intl
United States
More flights between these airports :: More routes between these airports
Route: LINDZ9 JNC HELPR LEEHY5
File this flight plan on PilotEdge
Remarks: Live Streaming on Twitch "DAL213" and YT
Altitude:
(Current/Filed)
30,000ft
Speed:
(Current/Filed)
400kts
Departed: 23-Sep-19 09:04 AM
Arrived: 23-Sep-19 09:52 AM
Distance/Time
Traveled:
253nm/0:47
Distance/Time
To Go:
Arrived

Flight Plot

Page will automatically refresh every two minutes.

Flight plan parsing failed; only flown route is shown


Map Options




Map Legend


Flown Route
Filed Route
Departure Airport
Arrival Airport
Navaid (VOR, NDB)
Fix

Horizontal Profiles

Position Reports

Time Latitude Longitude Heading Altitude Ground
Speed
23-Sep-19 08:53 39.221301 -106.865499 165 7745ft 0kts
23-Sep-19 08:53 39.221301 -106.865499 165 7745ft 0kts
23-Sep-19 08:54 39.221301 -106.865499 165 7745ft 0kts
23-Sep-19 08:55 39.221301 -106.865499 165 7745ft 0kts
23-Sep-19 08:56 39.221301 -106.865499 165 7745ft 0kts
23-Sep-19 08:57 39.221301 -106.865499 165 7745ft 0kts
23-Sep-19 08:58 39.221301 -106.865499 165 7745ft 0kts
23-Sep-19 08:59 39.221301 -106.865499 165 7745ft 0kts
23-Sep-19 09:00 39.220511 -106.865938 208 7745ft 11kts
23-Sep-19 09:01 39.217057 -106.864812 158 7745ft 7kts
23-Sep-19 09:02 39.214137 -106.863410 158 7745ft 15kts
23-Sep-19 09:03 39.213440 -106.864293 339 7745ft 51kts
23-Sep-19 09:04 39.253950 -106.880572 351 9242ft 194kts
23-Sep-19 09:05 39.283821 -106.942517 283 11629ft 247kts
23-Sep-19 09:06 39.306628 -107.036470 296 14011ft 303kts
23-Sep-19 09:07 39.365430 -107.129877 296 16257ft 354kts
23-Sep-19 09:08 39.369285 -107.252990 254 19531ft 353kts
23-Sep-19 09:09 39.345760 -107.377664 253 22641ft 362kts
23-Sep-19 09:10 39.320884 -107.505786 252 25297ft 370kts
23-Sep-19 09:11 39.295318 -107.635288 252 27647ft 375kts
23-Sep-19 09:12 39.269283 -107.766228 251 29641ft 379kts
23-Sep-19 09:13 39.242566 -107.899698 251 30273ft 386kts
23-Sep-19 09:14 39.215707 -108.033253 251 30281ft 386kts
23-Sep-19 09:15 39.188680 -108.166642 251 30258ft 385kts
23-Sep-19 09:16 39.161391 -108.300480 251 30231ft 385kts
23-Sep-19 09:17 39.134084 -108.433585 251 30228ft 384kts
23-Sep-19 09:18 39.106557 -108.566885 251 30216ft 385kts
23-Sep-19 09:19 39.078896 -108.700013 251 30214ft 385kts
23-Sep-19 09:20 39.057633 -108.835004 272 30232ft 403kts
23-Sep-19 09:21 39.123731 -108.959522 294 30235ft 425kts
23-Sep-19 09:22 39.179820 -109.091012 290 30220ft 418kts
23-Sep-19 09:23 39.233646 -109.223714 289 30214ft 418kts
23-Sep-19 09:24 39.287147 -109.357483 290 30214ft 419kts
23-Sep-19 09:25 39.340464 -109.491354 290 30212ft 420kts
23-Sep-19 09:26 39.393782 -109.625822 290 30219ft 421kts
23-Sep-19 09:27 39.447198 -109.761140 290 30224ft 422kts
23-Sep-19 09:28 39.500576 -109.896989 291 30229ft 429kts
23-Sep-19 09:29 39.555150 -110.036477 291 30236ft 436kts
23-Sep-19 09:30 39.609886 -110.177045 291 30242ft 438kts
23-Sep-19 09:31 39.664489 -110.317935 291 30246ft 437kts
23-Sep-19 09:32 39.719102 -110.459516 291 30252ft 438kts
23-Sep-19 09:33 39.773391 -110.600944 290 30247ft 438kts
23-Sep-19 09:34 39.827073 -110.741462 291 28532ft 437kts
23-Sep-19 09:35 39.880770 -110.882665 291 26369ft 428kts
23-Sep-19 09:36 39.932825 -111.020226 291 24265ft 419kts
23-Sep-19 09:37 39.983486 -111.154720 291 22210ft 408kts
23-Sep-19 09:38 40.032876 -111.286448 292 20191ft 399kts
23-Sep-19 09:39 40.080699 -111.414490 292 18252ft 387kts
23-Sep-19 09:40 40.127463 -111.540300 292 16353ft 381kts
23-Sep-19 09:41 40.173047 -111.663206 294 14396ft 367kts
23-Sep-19 09:42 40.239390 -111.762428 310 13091ft 346kts
23-Sep-19 09:43 40.304628 -111.845730 318 11980ft 303kts
23-Sep-19 09:44 40.369188 -111.910776 320 11323ft 291kts
23-Sep-19 09:45 40.448051 -111.934991 352 10141ft 290kts
23-Sep-19 09:46 40.527862 -111.944251 354 8981ft 281kts
23-Sep-19 09:47 40.603955 -111.953196 355 7560ft 270kts
23-Sep-19 09:48 40.670546 -111.958851 356 6734ft 199kts
23-Sep-19 09:49 40.719833 -111.967104 356 5598ft 154kts
23-Sep-19 09:50 40.759939 -111.971410 356 4482ft 143kts
23-Sep-19 09:51 40.789022 -111.974792 354 4236ft 30kts
23-Sep-19 09:52 40.791210 -111.977278 174 4236ft 9kts
23-Sep-19 09:53 40.789664 -111.979077 265 4236ft 6kts
23-Sep-19 09:54 40.787916 -111.979433 87 4236ft 7kts
23-Sep-19 09:55 40.787938 -111.979081 83 4236ft 0kts
23-Sep-19 09:56 40.787938 -111.979081 83 4236ft 0kts
23-Sep-19 09:57 40.787938 -111.979081 83 4236ft 0kts
23-Sep-19 09:58 40.787938 -111.979081 83 4236ft 0kts
23-Sep-19 09:59 40.787938 -111.979081 83 4236ft 0kts
23-Sep-19 10:00 40.787938 -111.979081 83 4236ft 0kts
23-Sep-19 10:01 40.787938 -111.979081 83 4236ft 0kts
23-Sep-19 10:02 40.787938 -111.979081 83 4236ft 0kts

Navigation Log

Ident Type
Flight plan parsing failed, navigation log unavailable